< < Back
Terminal Aerodrome Forecast


Current Version              Previous Versions:   1  2  3  4  5  6  7  8  9  

Terminal Aerodrome Forecast

613
FTUS44 KBMX 280520
TAFBHM
TAF
KBHM 280520Z 2806/2906 15005KT P6SM SCT060 BKN150
     FM281500 16007KT P6SM SCT045 BKN200=

Latest METAR

197
SAUS70 KWBC 280900 RRS
MTRBHM
METAR KBHM 280850Z 16005KT 10SM BKN065 23/17 A3005 RMK SLP167
T02280172


USA.gov is the U.S. government's official web portal to all federal, state and local government web resources and services.